Alton, KS

3:45 PM CDT on March 31, 2015 (GMT -0500)
Storm Spotter Kaelan Cameron | Change Station
CLOSE
Current Station
Personal Weather Station
Location: Osborne, KS
Elevation: 1575 ft
Nearby Weather Stations

Elev 1575 ft 39.44 °N, 98.69 °W | Updated 1 second ago

Clear
Clear
80.4 °F
Feels Like 79 °F
N
2.0
Wind Variable Wind from SSE
Gusts 2.5 mph

Today
High -- | Low -- °F
--% Chance of Precip.
Yesterday
High -- | Low -- °F
Precip. -- in
7:22 AM 7:58 PM
Waxing Gibbous, 88% visible
Pressure 29.91 in
Visibility 10.0 miles
Clouds Clear
Heat Index 79 °F
Dew Point 34 °F
Humidity 19%
Rainfall 0.00 in
Snow Depth Not available.
UV 4.0 out of 12
Pollen 9.10 out of 12
Air Quality Not available.
Flu Activity Local Activity
METAR KRSL 311953Z AUTO VRB05KT 10SM CLR 26/M02 A2993 RMK AO2 SLP128 T02611017

More Conditions Fewer Conditions

Pressure 29.91 in
Visibility 10.0 miles
Clouds Clear
Heat Index 79 °F
Dew Point 34 °F
Humidity 19%
Rainfall 0.00 in
Snow Depth Not available.
UV 4.0 out of 12
Pollen 9.10 out of 12
Air Quality Not available.
Flu Activity Local Activity
METAR KRSL 311953Z AUTO VRB05KT 10SM CLR 26/M02 A2993 RMK AO2 SLP128 T02611017

More Conditions Fewer Conditions

10-Day Weather Forecast

Almanac

Astronomy

Mar. 31, 2015 Rise Set
Actual Time 7:22 AM CDT 7:58 PM CDT
Civil Twilight 6:55 AM CDT 8:25 PM CDT
Nautical Twilight 6:23 AM CDT 8:57 PM CDT
Astronomical Twilight 5:50 AM CDT 9:30 PM CDT
Moon 4:45 PM CDT 5:20 AM CDT
Length of Visible Light 13h 30m
Length of Day
12h 36m
Tomorrow will be 2m 34s longer.
Waxing Gibbous, 88% of the Moon is Illuminated
Today
Waxing Gibbous
Apr 4
Full
Apr 11
Last Quarter
Apr 18
New
Apr 25
First Quarter

Today's Extremes

State Highs State Lows

Community

WunderPhotos

Upload Photos

1,809,826 photos uploaded!

Nearby

Snow Depth

Station Depth Elevation
No new snow has been reported.

Earthquake Activity

City Distance Mag. Time & Date
No recent earthquake activity has been reported nearby.
Minimum magnitude displayed is 2.5.

Coastal Water Temperatures

Place Temperature
No Stations Reporting

Nearby Weather Stations